Time;durP1;ratioP1;P1;durP2;ratioP2;P2;SDS_P1;SDS_P2;PMS_P1;PMS_P2;Temp;Humidity;BMP_temperature;BMP_pressure;BME280_temperature;BME280_humidity;BME280_pressure;Samples;Min_cycle;Max_cycle;Signal;HPM_P1;HPM_P2
2024/03/29 00:00:39;;;;;;;4.30;0.60;;;10.00;99.90;;;;;;5063189;28;20567;-56
2024/03/29 00:03:05;;;;;;;1.83;0.47;;;10.00;99.90;;;;;;5063175;28;20512;-55
2024/03/29 00:05:32;;;;;;;5.60;1.02;;;10.00;99.90;;;;;;5052449;28;20036;-55
2024/03/29 00:07:57;;;;;;;4.32;0.60;;;10.10;99.90;;;;;;5052152;28;20389;-53
2024/03/29 00:10:23;;;;;;;3.70;0.65;;;10.00;99.90;;;;;;5052337;28;20017;-55
2024/03/29 00:12:49;;;;;;;7.00;1.40;;;10.00;99.90;;;;;;5052208;28;20024;-60
2024/03/29 00:15:14;;;;;;;6.70;0.80;;;10.00;99.90;;;;;;5046654;28;20445;-56
2024/03/29 00:17:40;;;;;;;9.55;0.63;;;10.00;99.90;;;;;;5072095;28;20055;-55
2024/03/29 00:20:06;;;;;;;3.50;0.73;;;10.00;99.90;;;;;;5060486;28;20025;-55
2024/03/29 00:22:32;;;;;;;2.33;0.47;;;10.00;99.90;;;;;;5052412;28;20444;-54
2024/03/29 00:24:58;;;;;;;2.05;0.55;;;9.90;99.90;;;;;;5052229;28;20032;-54
2024/03/29 00:27:26;;;;;;;3.55;0.80;;;9.90;99.90;;;;;;5052000;28;20025;-54
2024/03/29 00:29:53;;;;;;;3.70;0.75;;;10.00;99.90;;;;;;5058707;28;20023;-53
2024/03/29 00:32:19;;;;;;;4.30;0.40;;;10.00;99.90;;;;;;5056098;28;20022;-53
2024/03/29 00:34:45;;;;;;;5.13;0.80;;;10.00;99.90;;;;;;5062796;28;20093;-55
2024/03/29 00:37:11;;;;;;;3.80;1.27;;;10.00;99.90;;;;;;5072074;28;20032;-54
2024/03/29 00:39:37;;;;;;;3.17;0.80;;;10.00;99.90;;;;;;5071990;28;20032;-55
2024/03/29 00:42:06;;;;;;;3.22;0.85;;;10.00;99.90;;;;;;5072060;28;20112;-55
2024/03/29 00:44:32;;;;;;;1.25;0.47;;;10.10;99.90;;;;;;5072077;28;20024;-52
2024/03/29 00:46:58;;;;;;;3.20;0.57;;;10.10;99.90;;;;;;5060971;28;20106;-54
2024/03/29 00:49:23;;;;;;;4.47;0.75;;;10.00;99.90;;;;;;5051832;28;20025;-54
2024/03/29 00:51:49;;;;;;;4.13;0.55;;;10.00;99.90;;;;;;5051933;28;20144;-56
2024/03/29 00:54:14;;;;;;;7.35;0.45;;;10.00;99.90;;;;;;5050540;28;20145;-54
2024/03/29 00:56:40;;;;;;;3.22;0.60;;;10.00;99.90;;;;;;5053087;28;20025;-42
2024/03/29 00:59:06;;;;;;;3.95;1.00;;;9.90;99.90;;;;;;5055546;28;20116;-46
2024/03/29 01:01:32;;;;;;;1.98;0.60;;;9.90;99.90;;;;;;5055960;28;20079;-43
2024/03/29 01:03:58;;;;;;;2.92;0.55;;;9.90;99.90;;;;;;5055625;28;20021;-43
2024/03/29 01:06:23;;;;;;;4.43;0.52;;;9.90;99.90;;;;;;5055472;28;20543;-44
2024/03/29 01:08:49;;;;;;;4.03;0.60;;;9.90;99.90;;;;;;5055425;28;20374;-45
2024/03/29 01:11:15;;;;;;;6.93;0.60;;;9.90;99.90;;;;;;5055771;28;20021;-46
2024/03/29 01:13:40;;;;;;;6.28;0.73;;;9.90;99.90;;;;;;5055601;28;20045;-45
2024/03/29 01:16:06;;;;;;;5.22;1.23;;;9.90;99.90;;;;;;5055481;28;20029;-45
2024/03/29 01:18:33;;;;;;;1.35;0.47;;;9.90;99.90;;;;;;5055339;28;20505;-46
2024/03/29 01:20:59;;;;;;;6.85;0.52;;;9.90;99.90;;;;;;5055409;28;20386;-45
2024/03/29 01:23:24;;;;;;;1.50;0.40;;;9.90;99.90;;;;;;5054012;28;20207;-56
2024/03/29 01:25:50;;;;;;;5.68;1.00;;;9.80;99.90;;;;;;5053931;28;20393;-55
2024/03/29 01:28:16;;;;;;;4.20;0.70;;;9.80;99.90;;;;;;5055259;28;20094;-55
2024/03/29 01:30:41;;;;;;;1.38;0.55;;;9.70;99.90;;;;;;5055273;28;20470;-56
2024/03/29 01:33:07;;;;;;;3.90;0.63;;;9.70;99.90;;;;;;5055141;28;20024;-54
2024/03/29 01:35:32;;;;;;;2.00;0.30;;;9.70;99.90;;;;;;5055405;28;20017;-54
2024/03/29 01:37:58;;;;;;;1.70;0.50;;;9.60;99.90;;;;;;5055074;28;20078;-54
2024/03/29 01:40:24;;;;;;;9.20;0.73;;;9.60;99.90;;;;;;5054801;28;20494;-54
2024/03/29 01:42:53;;;;;;;2.08;0.50;;;9.60;99.90;;;;;;5054997;28;20028;-47
2024/03/29 01:45:19;;;;;;;3.15;0.77;;;9.70;99.90;;;;;;5054911;28;20068;-44
2024/03/29 01:47:46;;;;;;;2.72;0.60;;;9.70;99.90;;;;;;5055127;28;20378;-43
2024/03/29 01:50:12;;;;;;;1.77;1.02;;;9.70;99.90;;;;;;5054829;28;20433;-48
2024/03/29 01:52:39;;;;;;;5.03;1.55;;;9.70;99.90;;;;;;5054832;28;20021;-43
2024/03/29 01:55:05;;;;;;;5.68;1.23;;;9.70;99.90;;;;;;5054877;28;20470;-45
2024/03/29 01:57:31;;;;;;;4.60;0.73;;;9.70;99.90;;;;;;5054605;28;20486;-51
2024/03/29 01:59:57;;;;;;;2.67;0.95;;;9.70;99.90;;;;;;5053570;28;20074;-55
2024/03/29 02:02:23;;;;;;;4.32;0.60;;;9.70;99.90;;;;;;5054367;28;20055;-55
2024/03/29 02:04:49;;;;;;;4.38;0.70;;;9.60;99.90;;;;;;5054065;28;20363;-52
2024/03/29 02:07:15;;;;;;;2.67;0.50;;;9.60;99.90;;;;;;5054244;28;20041;-54
2024/03/29 02:09:41;;;;;;;3.70;0.57;;;9.60;99.90;;;;;;5053694;28;20479;-55
2024/03/29 02:12:07;;;;;;;2.58;0.63;;;9.60;99.90;;;;;;5054424;28;20099;-55
2024/03/29 02:14:33;;;;;;;2.08;0.70;;;9.60;99.90;;;;;;5054258;28;20493;-56
2024/03/29 02:16:58;;;;;;;2.95;0.40;;;9.60;99.90;;;;;;5053150;28;20041;-54
2024/03/29 02:19:24;;;;;;;5.80;0.90;;;9.60;99.90;;;;;;5054366;28;20029;-56
2024/03/29 02:21:52;;;;;;;2.28;1.13;;;9.60;99.90;;;;;;5054486;28;20355;-42
2024/03/29 02:24:18;;;;;;;4.57;1.58;;;9.60;99.90;;;;;;5054173;28;20033;-45
2024/03/29 02:26:45;;;;;;;4.53;0.70;;;9.60;99.90;;;;;;5054338;28;20379;-43
2024/03/29 02:29:11;;;;;;;3.88;0.82;;;9.60;99.90;;;;;;5054120;28;20020;-45
2024/03/29 02:31:36;;;;;;;3.08;0.60;;;9.60;99.90;;;;;;5054465;28;20471;-45
2024/03/29 02:34:03;;;;;;;4.78;1.13;;;9.60;99.90;;;;;;5054405;28;20017;-43
2024/03/29 02:36:28;;;;;;;2.03;0.52;;;9.60;99.90;;;;;;5054239;28;20436;-47
2024/03/29 02:38:54;;;;;;;4.57;0.60;;;9.60;99.90;;;;;;5052843;28;20033;-43
2024/03/29 02:41:21;;;;;;;2.78;0.60;;;9.60;99.90;;;;;;5053912;28;20499;-46
2024/03/29 02:43:47;;;;;;;6.68;0.30;;;9.60;99.90;;;;;;5052657;28;20059;-55
2024/03/29 02:46:12;;;;;;;0.82;0.30;;;9.60;99.90;;;;;;5053822;28;20496;-54
2024/03/29 02:48:38;;;;;;;1.48;0.60;;;9.60;99.90;;;;;;5053604;28;20017;-54
2024/03/29 02:51:04;;;;;;;4.88;0.57;;;9.60;99.90;;;;;;5053757;28;20017;-54
2024/03/29 02:53:29;;;;;;;1.42;0.40;;;9.70;99.90;;;;;;5053611;28;20025;-53
2024/03/29 02:55:55;;;;;;;4.20;0.73;;;9.70;99.90;;;;;;5053640;28;20029;-53
2024/03/29 02:58:21;;;;;;;3.55;1.60;;;9.70;99.90;;;;;;5053623;28;20377;-44
2024/03/29 03:00:46;;;;;;;2.78;0.45;;;9.70;99.90;;;;;;5053459;28;20017;-44
2024/03/29 03:03:16;;;;;;;1.38;0.60;;;9.70;99.90;;;;;;5053430;28;20559;-44
2024/03/29 03:05:42;;;;;;;3.88;0.70;;;9.70;99.90;;;;;;5053209;28;20025;-46
2024/03/29 03:11:09;;;;;;;3.25;0.82;;;9.70;99.90;;;;;;4991830;28;20038;-43
2024/03/29 03:13:34;;;;;;;6.50;0.52;;;9.70;99.90;;;;;;5040503;28;20040;-42
2024/03/29 03:16:00;;;;;;;7.28;0.50;;;9.70;99.90;;;;;;5053283;28;20492;-45
2024/03/29 03:18:25;;;;;;;1.80;0.32;;;9.60;99.90;;;;;;5053011;28;20077;-43
2024/03/29 03:20:57;;;;;;;1.13;0.52;;;9.60;99.90;;;;;;5051756;28;20025;-47
2024/03/29 03:23:22;;;;;;;1.75;0.57;;;9.60;99.90;;;;;;5053309;28;20025;-48
2024/03/29 03:25:56;;;;;;;2.63;0.60;;;9.60;99.90;;;;;;5053046;28;20469;-44
2024/03/29 03:28:22;;;;;;;1.02;0.22;;;9.60;99.90;;;;;;5053268;28;20482;-49
2024/03/29 03:30:49;;;;;;;5.18;0.40;;;9.60;99.90;;;;;;5053204;28;20111;-43
2024/03/29 03:33:15;;;;;;;5.00;0.55;;;9.60;99.90;;;;;;5052916;28;20523;-45
2024/03/29 03:35:42;;;;;;;4.63;0.60;;;9.60;99.90;;;;;;5052914;28;20101;-43
2024/03/29 03:38:08;;;;;;;3.55;0.70;;;9.60;99.90;;;;;;5052957;28;20418;-43
2024/03/29 03:40:34;;;;;;;1.75;0.50;;;9.60;99.90;;;;;;5052989;28;20440;-51
2024/03/29 03:43:00;;;;;;;4.72;0.38;;;9.60;99.90;;;;;;5052764;28;20029;-47
2024/03/29 03:45:26;;;;;;;3.22;0.35;;;9.60;99.90;;;;;;5052773;28;20036;-55
2024/03/29 03:47:51;;;;;;;2.13;0.40;;;9.60;99.90;;;;;;5052551;28;20029;-54
2024/03/29 03:50:17;;;;;;;1.50;0.38;;;9.60;99.90;;;;;;5052436;28;20520;-55
2024/03/29 03:52:42;;;;;;;2.35;0.40;;;9.60;99.90;;;;;;5052444;28;20036;-54
2024/03/29 03:55:08;;;;;;;1.25;0.57;;;9.60;99.90;;;;;;5050727;28;20381;-54
2024/03/29 03:57:34;;;;;;;3.92;0.50;;;9.60;99.90;;;;;;5051868;28;20021;-56
2024/03/29 04:00:00;;;;;;;0.85;0.40;;;9.50;99.90;;;;;;5035184;28;20083;-58
2024/03/29 04:02:25;;;;;;;4.72;0.50;;;9.60;99.90;;;;;;5052530;28;20497;-55
2024/03/29 04:04:51;;;;;;;0.75;0.20;;;9.70;99.90;;;;;;5051446;28;20066;-54
2024/03/29 04:07:16;;;;;;;7.15;0.65;;;9.70;99.90;;;;;;5052167;28;20067;-54
2024/03/29 04:09:42;;;;;;;4.53;0.45;;;9.70;99.90;;;;;;5052464;28;20434;-44
2024/03/29 04:12:08;;;;;;;1.95;0.50;;;9.70;99.90;;;;;;5052177;28;20070;-45
2024/03/29 04:14:33;;;;;;;2.47;0.50;;;9.70;99.90;;;;;;5052238;28;20357;-47
2024/03/29 04:16:59;;;;;;;2.45;0.35;;;9.70;99.90;;;;;;5052179;28;20483;-46
2024/03/29 04:19:25;;;;;;;2.53;0.45;;;9.60;99.90;;;;;;5052206;28;20437;-44
2024/03/29 04:21:52;;;;;;;2.35;0.50;;;9.70;99.90;;;;;;5052114;28;20029;-45
2024/03/29 04:24:18;;;;;;;2.20;0.40;;;9.70;99.90;;;;;;5052201;28;20025;-43
2024/03/29 04:26:44;;;;;;;4.53;0.88;;;9.80;99.90;;;;;;5051106;28;20376;-54
2024/03/29 04:29:10;;;;;;;1.35;0.40;;;9.80;99.90;;;;;;5052036;28;20018;-54
2024/03/29 04:31:36;;;;;;;2.70;0.65;;;9.80;99.90;;;;;;5054669;28;20024;-53
2024/03/29 04:34:01;;;;;;;3.20;0.40;;;9.80;99.90;;;;;;5058622;28;20025;-57
2024/03/29 04:36:27;;;;;;;3.40;0.43;;;9.80;99.90;;;;;;5058741;28;20094;-52
2024/03/29 04:38:53;;;;;;;2.55;0.32;;;9.80;99.90;;;;;;5058546;28;20056;-55
2024/03/29 04:41:19;;;;;;;0.95;0.30;;;9.80;99.90;;;;;;5058645;28;20044;-55
2024/03/29 04:43:45;;;;;;;3.13;0.85;;;9.80;99.90;;;;;;5058881;28;20412;-44
2024/03/29 04:46:12;;;;;;;1.10;0.28;;;9.90;99.90;;;;;;5058647;28;20021;-44
2024/03/29 04:48:39;;;;;;;0.65;0.20;;;9.90;99.90;;;;;;5058511;28;20024;-54
2024/03/29 04:51:23;;;;;;;4.40;0.47;;;9.80;99.90;;;;;;5057226;28;20384;-54
2024/03/29 04:53:49;;;;;;;1.40;0.57;;;9.90;99.90;;;;;;5041692;28;20481;-55
2024/03/29 04:56:15;;;;;;;0.52;0.20;;;9.80;99.90;;;;;;5038868;28;20101;-55
2024/03/29 04:58:41;;;;;;;1.50;0.30;;;9.80;99.90;;;;;;5038424;28;20025;-54
2024/03/29 05:01:07;;;;;;;0.43;0.22;;;9.90;99.90;;;;;;5050300;28;20029;-54
2024/03/29 05:03:32;;;;;;;0.28;0.08;;;9.80;99.90;;;;;;5058540;28;20489;-53
2024/03/29 05:05:58;;;;;;;0.20;0.17;;;9.80;99.90;;;;;;5058402;28;20025;-53
2024/03/29 05:08:24;;;;;;;3.55;0.15;;;9.70;99.90;;;;;;5057020;28;20453;-52
2024/03/29 05:10:50;;;;;;;0.10;0.10;;;9.70;99.90;;;;;;5058492;28;20013;-55
2024/03/29 05:13:16;;;;;;;1.17;0.22;;;9.70;99.90;;;;;;5058396;28;20071;-56
2024/03/29 05:15:43;;;;;;;0.30;0.10;;;9.60;99.90;;;;;;5057133;28;20473;-54
2024/03/29 05:18:08;;;;;;;0.20;0.20;;;9.60;99.90;;;;;;5056849;28;20170;-53
2024/03/29 05:20:34;;;;;;;2.47;0.30;;;9.60;99.90;;;;;;5058114;28;20436;-54
2024/03/29 05:23:01;;;;;;;0.73;0.30;;;9.60;99.90;;;;;;5058520;28;20446;-53
2024/03/29 05:25:27;;;;;;;0.88;0.57;;;9.70;99.90;;;;;;5058539;28;20049;-53
2024/03/29 05:27:53;;;;;;;1.73;0.30;;;9.60;99.90;;;;;;5058176;28;20033;-56
2024/03/29 05:30:18;;;;;;;1.13;0.40;;;9.60;99.90;;;;;;5058420;28;20044;-47
2024/03/29 05:32:44;;;;;;;0.68;0.30;;;9.50;99.90;;;;;;5058364;28;20033;-52
2024/03/29 05:35:10;;;;;;;1.20;0.10;;;9.50;99.90;;;;;;5058093;28;20056;-57
2024/03/29 05:37:36;;;;;;;0.63;0.32;;;9.40;99.90;;;;;;5058202;28;20032;-54
2024/03/29 05:40:05;;;;;;;1.30;0.10;;;9.40;99.90;;;;;;5056866;28;20035;-55
2024/03/29 05:42:35;;;;;;;0.40;0.20;;;9.40;99.90;;;;;;5056711;28;20124;-56
2024/03/29 05:45:01;;;;;;;1.48;0.35;;;9.30;99.90;;;;;;5054407;28;20029;-55
2024/03/29 05:47:27;;;;;;;0.25;0.10;;;9.30;99.90;;;;;;5054921;28;20037;-42
2024/03/29 05:49:54;;;;;;;0.28;0.17;;;9.30;99.90;;;;;;5054951;28;20017;-55
2024/03/29 05:52:20;;;;;;;0.90;0.30;;;9.30;99.90;;;;;;5050369;28;20025;-55
2024/03/29 05:54:46;;;;;;;2.90;0.40;;;9.30;99.90;;;;;;5039431;28;20021;-55
2024/03/29 05:57:12;;;;;;;0.65;0.20;;;9.30;99.90;;;;;;5034827;28;20025;-55
2024/03/29 05:59:38;;;;;;;2.53;0.30;;;9.30;99.90;;;;;;5034710;28;20467;-54
2024/03/29 06:02:04;;;;;;;0.65;0.30;;;9.30;99.90;;;;;;5054220;28;20021;-55
2024/03/29 06:04:33;;;;;;;0.75;0.32;;;9.30;99.90;;;;;;5054917;28;20029;-54
2024/03/29 06:07:03;;;;;;;1.48;0.30;;;9.20;99.90;;;;;;5054429;28;20470;-54
2024/03/29 06:09:29;;;;;;;4.35;0.40;;;9.20;99.90;;;;;;5054409;28;20028;-52
2024/03/29 06:11:56;;;;;;;1.75;0.40;;;9.10;99.90;;;;;;5054242;28;20017;-54
2024/03/29 06:17:24;;;;;;;3.75;0.47;;;9.10;99.90;;;;;;5054426;28;20490;-41
2024/03/29 06:19:51;;;;;;;3.05;0.40;;;9.10;99.90;;;;;;5054516;28;20029;-42
2024/03/29 06:22:20;;;;;;;5.10;0.45;;;9.10;99.90;;;;;;5054332;28;20037;-40
2024/03/29 06:24:46;;;;;;;0.52;0.40;;;9.10;99.90;;;;;;5041973;28;20136;-39
2024/03/29 06:27:16;;;;;;;1.25;0.45;;;9.10;99.90;;;;;;5034406;28;20111;-40
2024/03/29 06:29:42;;;;;;;0.40;0.20;;;9.10;99.90;;;;;;5053278;28;20025;-39
2024/03/29 06:32:07;;;;;;;0.13;0.10;;;9.10;99.90;;;;;;5054049;28;20021;-40
2024/03/29 06:34:33;;;;;;;3.90;0.20;;;9.10;99.90;;;;;;5054505;28;20071;-43
2024/03/29 06:36:59;;;;;;;2.05;0.30;;;9.10;99.90;;;;;;5052955;28;20486;-41
2024/03/29 06:39:25;;;;;;;1.20;0.30;;;9.20;99.90;;;;;;5053921;28;20033;-53
2024/03/29 06:41:51;;;;;;;2.42;0.20;;;9.20;99.90;;;;;;5054130;28;20481;-54
2024/03/29 06:44:17;;;;;;;1.80;0.40;;;9.30;99.90;;;;;;5053659;28;20029;-52
2024/03/29 06:46:43;;;;;;;0.82;0.20;;;9.40;99.90;;;;;;5053808;28;20032;-55
2024/03/29 06:49:09;;;;;;;0.50;0.38;;;9.40;99.90;;;;;;5053891;28;20040;-44
2024/03/29 06:51:34;;;;;;;0.40;0.40;;;9.40;99.90;;;;;;5053629;28;20033;-42
2024/03/29 06:54:00;;;;;;;2.90;0.60;;;9.40;99.90;;;;;;5053408;28;20490;-45
2024/03/29 06:56:26;;;;;;;2.38;0.47;;;9.50;99.90;;;;;;5053857;28;20024;-43
2024/03/29 06:58:51;;;;;;;1.05;0.30;;;9.40;99.90;;;;;;5052815;28;20029;-40
2024/03/29 07:01:17;;;;;;;2.38;0.50;;;9.40;99.90;;;;;;5053441;28;20033;-42
2024/03/29 07:03:42;;;;;;;0.82;0.40;;;9.50;99.90;;;;;;5053344;28;20120;-45
2024/03/29 07:06:08;;;;;;;1.05;0.70;;;9.50;99.90;;;;;;5053283;28;20029;-40
2024/03/29 07:08:34;;;;;;;0.75;0.40;;;9.50;99.90;;;;;;5053320;28;20033;-45
2024/03/29 07:11:01;;;;;;;1.92;0.57;;;9.60;99.90;;;;;;5053254;28;20021;-43
2024/03/29 07:13:32;;;;;;;3.50;0.32;;;9.60;99.90;;;;;;5053273;28;20111;-41
2024/03/29 07:16:01;;;;;;;2.40;0.38;;;9.60;99.90;;;;;;5053236;28;20037;-47
2024/03/29 07:18:27;;;;;;;1.77;0.50;;;9.70;99.90;;;;;;5052837;28;20497;-45
2024/03/29 07:20:53;;;;;;;1.92;0.55;;;9.80;99.90;;;;;;5053413;28;20078;-41
2024/03/29 07:23:19;;;;;;;3.60;0.40;;;9.90;99.90;;;;;;5053101;28;20021;-46
2024/03/29 07:25:46;;;;;;;0.40;0.35;;;9.90;99.90;;;;;;5053035;28;20060;-44
2024/03/29 07:28:15;;;;;;;2.22;0.73;;;10.00;99.90;;;;;;5053001;28;20028;-44
2024/03/29 07:30:41;;;;;;;0.40;0.15;;;10.10;99.90;;;;;;5052860;28;20036;-44
2024/03/29 07:33:09;;;;;;;1.15;0.43;;;10.30;99.90;;;;;;5052737;28;20477;-43
2024/03/29 07:35:35;;;;;;;1.23;0.10;;;10.40;99.90;;;;;;5052706;28;20036;-43
2024/03/29 07:38:00;;;;;;;1.45;0.40;;;10.40;99.90;;;;;;5052790;28;20028;-47
2024/03/29 07:40:26;;;;;;;3.22;0.50;;;10.40;99.90;;;;;;5052930;28;20478;-43
2024/03/29 07:42:51;;;;;;;0.20;0.20;;;10.40;99.90;;;;;;5052947;28;20549;-43
2024/03/29 07:45:17;;;;;;;0.90;0.40;;;10.30;99.90;;;;;;5052694;28;20116;-41
2024/03/29 07:47:43;;;;;;;0.65;0.40;;;10.40;99.90;;;;;;5052513;28;20181;-42
2024/03/29 07:50:10;;;;;;;0.68;0.30;;;10.50;99.90;;;;;;5052506;28;20075;-44
2024/03/29 07:52:35;;;;;;;0.30;0.30;;;10.60;99.90;;;;;;5052243;28;20068;-43
2024/03/29 07:55:01;;;;;;;3.47;0.70;;;10.70;99.90;;;;;;5052436;28;20048;-43
2024/03/29 07:57:53;;;;;;;0.60;0.30;;;10.80;99.90;;;;;;5052399;28;20025;-47
2024/03/29 08:00:19;;;;;;;0.47;0.30;;;10.90;99.90;;;;;;5047156;28;20037;-54
2024/03/29 08:02:44;;;;;;;6.22;0.45;;;10.90;99.90;;;;;;5052356;28;20039;-53
2024/03/29 08:05:10;;;;;;;1.83;0.45;;;11.00;99.90;;;;;;5052355;28;20029;-54
2024/03/29 08:07:35;;;;;;;1.65;0.60;;;11.00;99.90;;;;;;5051526;28;20077;-45
2024/03/29 08:10:01;;;;;;;1.42;0.55;;;11.10;99.90;;;;;;5052167;28;20028;-43
2024/03/29 08:12:27;;;;;;;0.50;0.30;;;11.10;99.90;;;;;;5052250;28;20041;-47
2024/03/29 08:14:52;;;;;;;1.70;0.40;;;11.20;99.90;;;;;;5052275;28;20465;-46
2024/03/29 08:17:18;;;;;;;2.95;0.93;;;11.30;99.90;;;;;;5052045;28;20049;-46
2024/03/29 08:19:43;;;;;;;1.70;0.38;;;11.10;99.90;;;;;;5052220;28;20025;-45
2024/03/29 08:22:10;;;;;;;0.65;0.10;;;11.00;99.90;;;;;;5052118;28;20039;-45
2024/03/29 08:24:37;;;;;;;0.20;0.20;;;11.10;99.90;;;;;;5052417;28;20539;-47
2024/03/29 08:27:02;;;;;;;3.15;0.45;;;11.10;99.90;;;;;;5051997;28;20083;-46
2024/03/29 08:29:28;;;;;;;2.38;0.45;;;11.20;99.90;;;;;;5051961;28;20477;-42
2024/03/29 08:31:54;;;;;;;1.77;0.38;;;11.30;99.90;;;;;;5052035;28;20470;-49
2024/03/29 08:34:19;;;;;;;0.30;0.30;;;11.40;99.90;;;;;;5052003;28;20021;-47
2024/03/29 08:36:45;;;;;;;1.05;0.40;;;11.40;99.90;;;;;;5048472;28;20107;-50
2024/03/29 08:39:11;;;;;;;0.50;0.45;;;11.50;99.90;;;;;;5052233;28;20033;-48
2024/03/29 08:41:37;;;;;;;0.80;0.20;;;11.40;99.90;;;;;;5052223;28;20052;-46
2024/03/29 08:44:05;;;;;;;2.65;0.40;;;11.50;99.90;;;;;;5051711;28;20025;-54
2024/03/29 08:46:30;;;;;;;1.15;0.45;;;11.60;99.90;;;;;;5051902;28;20021;-55
2024/03/29 08:48:56;;;;;;;0.30;0.20;;;11.60;99.90;;;;;;5051860;28;20496;-54
2024/03/29 08:51:22;;;;;;;0.57;0.30;;;11.70;99.90;;;;;;5051931;28;20021;-44
2024/03/29 08:53:47;;;;;;;0.57;0.10;;;11.80;99.90;;;;;;5051616;28;20032;-43
2024/03/29 08:56:15;;;;;;;1.75;0.55;;;11.90;99.90;;;;;;5051765;28;20021;-55
2024/03/29 08:58:41;;;;;;;0.47;0.38;;;12.00;99.90;;;;;;5051952;28;20024;-55
2024/03/29 09:01:06;;;;;;;0.28;0.22;;;12.20;99.90;;;;;;5051589;28;20520;-48
2024/03/29 09:03:32;;;;;;;1.20;0.55;;;12.50;99.90;;;;;;5051690;28;20098;-46
2024/03/29 09:05:58;;;;;;;3.03;0.70;;;12.70;99.90;;;;;;5051686;28;20037;-46
2024/03/29 09:08:23;;;;;;;0.28;0.20;;;12.80;99.90;;;;;;5051566;28;20021;-45
2024/03/29 09:10:49;;;;;;;1.52;0.38;;;12.90;99.90;;;;;;5051636;28;20386;-46
2024/03/29 09:13:14;;;;;;;1.90;0.20;;;12.80;99.90;;;;;;5051635;28;20025;-47
2024/03/29 09:15:40;;;;;;;0.25;0.20;;;12.70;99.90;;;;;;5051524;28;20029;-49
2024/03/29 09:18:23;;;;;;;0.22;0.22;;;12.60;99.90;;;;;;5053207;28;20080;-43
2024/03/29 09:20:59;;;;;;;0.43;0.32;;;12.40;99.90;;;;;;5056762;28;20528;-43
2024/03/29 09:23:28;;;;;;;3.97;0.60;;;12.40;99.90;;;;;;5055394;28;20037;-46
2024/03/29 09:25:53;;;;;;;1.02;0.50;;;12.40;99.90;;;;;;5049460;28;20029;-47
2024/03/29 09:28:20;;;;;;;0.55;0.10;;;12.30;99.90;;;;;;5038468;28;20024;-48
2024/03/29 09:30:47;;;;;;;0.22;0.22;;;12.30;99.90;;;;;;5055363;28;20063;-43
2024/03/29 09:33:12;;;;;;;2.50;0.50;;;12.20;99.90;;;;;;5053889;28;20025;-42
2024/03/29 09:35:38;;;;;;;1.98;0.30;;;12.20;99.90;;;;;;5054243;28;20100;-46
2024/03/29 09:38:04;;;;;;;2.38;0.30;;;12.00;99.90;;;;;;5047125;28;20083;-48
2024/03/29 09:40:30;;;;;;;0.73;0.40;;;11.90;99.90;;;;;;5054665;28;20482;-46
2024/03/29 09:43:02;;;;;;;6.85;0.50;;;11.90;99.90;;;;;;5054855;28;20104;-46
2024/03/29 09:45:36;;;;;;;0.82;0.47;;;11.80;99.90;;;;;;5054670;28;20025;-45
2024/03/29 09:48:04;;;;;;;0.38;0.38;;;11.60;99.90;;;;;;5054313;28;20417;-46
2024/03/29 09:50:35;;;;;;;1.20;1.05;;;11.60;99.90;;;;;;5054499;28;20017;-53
2024/03/29 09:53:04;;;;;;;2.65;0.70;;;11.50;99.90;;;;;;5054661;28;20528;-56
2024/03/29 09:55:30;;;;;;;2.58;0.50;;;11.50;99.90;;;;;;5054428;28;20017;-56
2024/03/29 09:57:57;;;;;;;1.98;0.50;;;11.60;99.90;;;;;;5054756;28;20025;-51
2024/03/29 10:00:23;;;;;;;2.33;0.55;;;11.90;99.90;;;;;;5054699;28;20497;-56
2024/03/29 10:02:52;;;;;;;3.38;1.05;;;12.10;99.90;;;;;;5054406;28;20496;-56
2024/03/29 10:05:19;;;;;;;1.42;0.38;;;12.30;99.90;;;;;;5049976;28;20052;-55
2024/03/29 10:07:46;;;;;;;4.05;0.60;;;12.50;99.90;;;;;;5054693;28;20544;-56
2024/03/29 10:10:11;;;;;;;0.40;0.30;;;12.80;99.90;;;;;;5054452;28;20021;-55
2024/03/29 10:12:37;;;;;;;1.55;0.50;;;13.00;99.90;;;;;;5054456;28;20256;-56
2024/03/29 10:15:18;;;;;;;3.50;0.95;;;13.00;99.90;;;;;;5053142;28;20373;-56
2024/03/29 10:17:50;;;;;;;2.35;0.55;;;13.30;99.90;;;;;;5054261;28;20451;-56
2024/03/29 10:20:17;;;;;;;1.17;0.70;;;13.30;99.90;;;;;;5053044;28;20032;-55
2024/03/29 10:22:44;;;;;;;0.95;0.68;;;13.30;99.90;;;;;;5054583;28;20025;-56
2024/03/29 10:25:10;;;;;;;0.80;0.63;;;13.30;99.90;;;;;;5054076;28;20147;-56
2024/03/29 10:27:36;;;;;;;1.10;0.50;;;13.40;99.90;;;;;;5053954;28;20017;-55
2024/03/29 10:30:03;;;;;;;1.80;0.80;;;13.50;99.90;;;;;;5052050;28;20408;-54
2024/03/29 10:32:29;;;;;;;1.90;0.90;;;13.70;99.90;;;;;;5053771;28;20100;-57
2024/03/29 10:34:55;;;;;;;1.00;0.90;;;13.80;99.90;;;;;;5051924;28;20107;-56
2024/03/29 10:37:26;;;;;;;2.35;1.05;;;13.90;99.90;;;;;;5054086;28;20025;-50
2024/03/29 10:39:52;;;;;;;0.65;0.63;;;14.00;99.90;;;;;;5053281;28;20489;-54
2024/03/29 10:42:20;;;;;;;1.23;0.63;;;14.10;99.90;;;;;;5037052;28;20103;-52
2024/03/29 10:44:48;;;;;;;1.65;0.70;;;14.10;99.90;;;;;;5053477;28;20484;-58
2024/03/29 10:47:20;;;;;;;1.05;0.50;;;14.10;99.90;;;;;;5053752;28;20063;-47
2024/03/29 10:49:50;;;;;;;1.10;0.70;;;14.10;99.90;;;;;;5053463;28;20040;-44
2024/03/29 10:52:17;;;;;;;1.73;0.80;;;14.20;99.90;;;;;;5053875;28;20416;-43
2024/03/29 10:54:47;;;;;;;2.72;0.70;;;14.30;99.90;;;;;;5053922;28;20029;-49
2024/03/29 11:00:14;;;;;;;0.45;0.45;;;14.20;99.90;;;;;;5053401;28;20094;-45
2024/03/29 11:03:03;;;;;;;1.17;0.75;;;14.10;99.90;;;;;;5052367;28;20052;-49
2024/03/29 11:05:30;;;;;;;2.72;0.93;;;14.20;99.90;;;;;;5050438;28;20378;-43
2024/03/29 11:07:56;;;;;;;2.60;0.70;;;14.20;99.90;;;;;;5052798;28;20496;-45
2024/03/29 11:10:27;;;;;;;1.08;0.55;;;14.40;99.90;;;;;;5053375;28;20540;-45
2024/03/29 11:13:19;;;;;;;2.65;0.63;;;14.60;99.90;;;;;;5053227;28;20029;-53
2024/03/29 11:15:45;;;;;;;0.95;0.70;;;14.90;99.90;;;;;;5053515;28;20079;-48
2024/03/29 11:18:13;;;;;;;0.85;0.65;;;15.10;99.90;;;;;;5039920;28;20525;-45
2024/03/29 11:20:42;;;;;;;0.40;0.40;;;15.20;99.90;;;;;;5036700;28;20024;-48
2024/03/29 11:23:11;;;;;;;2.85;1.13;;;15.10;99.90;;;;;;5053071;28;20053;-46
2024/03/29 11:25:50;;;;;;;0.75;0.70;;;14.90;99.90;;;;;;5053029;28;20029;-49
2024/03/29 11:28:23;;;;;;;0.65;0.45;;;14.70;99.90;;;;;;5048358;28;20036;-48
2024/03/29 11:30:52;;;;;;;6.80;1.05;;;14.60;99.90;;;;;;5052015;28;20497;-46
2024/03/29 11:33:43;;;;;;;2.20;0.63;;;14.60;99.90;;;;;;5053097;28;20531;-45
2024/03/29 11:36:31;;;;;;;0.68;0.68;;;14.70;99.90;;;;;;5052417;28;20056;-44
2024/03/29 11:38:57;;;;;;;0.60;0.60;;;15.00;99.90;;;;;;5050383;28;20071;-48
2024/03/29 11:41:27;;;;;;;1.70;0.70;;;15.40;99.90;;;;;;5050995;28;20432;-51
2024/03/29 11:43:54;;;;;;;1.20;0.80;;;15.30;99.90;;;;;;5043930;28;20088;-47
2024/03/29 11:46:21;;;;;;;1.63;1.00;;;15.50;99.90;;;;;;5032761;28;20493;-48
2024/03/29 11:48:49;;;;;;;1.70;0.80;;;15.80;99.90;;;;;;5032673;28;20022;-43
2024/03/29 11:51:18;;;;;;;0.80;0.80;;;15.90;99.90;;;;;;5045159;28;20473;-46
2024/03/29 11:53:44;;;;;;;1.20;1.10;;;16.00;99.90;;;;;;5052564;28;20409;-45
2024/03/29 11:56:13;;;;;;;0.85;0.85;;;15.70;99.90;;;;;;5051228;28;20056;-48
2024/03/29 11:58:40;;;;;;;2.67;1.25;;;15.60;99.90;;;;;;5052791;28;20036;-46
2024/03/29 12:01:09;;;;;;;2.27;0.80;;;15.60;99.90;;;;;;5052756;28;20416;-43
2024/03/29 12:03:38;;;;;;;1.52;1.42;;;15.60;99.90;;;;;;5052487;28;20029;-53
2024/03/29 12:06:05;;;;;;;5.22;1.70;;;15.70;99.90;;;;;;5051121;28;20028;-48
2024/03/29 12:08:33;;;;;;;1.40;1.30;;;15.80;99.90;;;;;;5052282;28;20036;-50
2024/03/29 12:11:00;;;;;;;1.90;1.60;;;15.80;99.90;;;;;;5052407;28;20017;-45
2024/03/29 12:13:27;;;;;;;1.33;1.23;;;15.70;99.90;;;;;;5052333;28;20028;-46
2024/03/29 12:15:53;;;;;;;2.13;1.40;;;15.60;99.90;;;;;;5052303;28;20390;-50
2024/03/29 12:18:23;;;;;;;1.50;1.40;;;15.50;99.90;;;;;;5052338;28;20048;-44
2024/03/29 12:20:50;;;;;;;3.00;2.03;;;15.40;99.90;;;;;;5052320;28;20058;-47
2024/03/29 12:23:17;;;;;;;1.33;1.23;;;15.40;99.90;;;;;;5052101;28;20028;-46
2024/03/29 12:25:43;;;;;;;6.47;1.88;;;15.40;99.90;;;;;;5051969;28;20070;-46
2024/03/29 12:28:10;;;;;;;2.70;1.88;;;15.40;99.90;;;;;;5052037;28;20473;-49
2024/03/29 12:30:37;;;;;;;5.07;2.00;;;15.40;99.90;;;;;;5051271;28;20374;-52
2024/03/29 12:33:19;;;;;;;1.80;1.40;;;15.50;99.90;;;;;;5052253;28;20538;-43
2024/03/29 12:35:48;;;;;;;4.78;1.25;;;15.50;99.90;;;;;;5051963;28;20036;-47
2024/03/29 12:38:15;;;;;;;7.85;1.85;;;15.50;99.90;;;;;;5051331;28;20231;-44
2024/03/29 12:40:43;;;;;;;3.47;1.50;;;15.70;99.90;;;;;;5061590;28;20025;-42
2024/03/29 12:43:09;;;;;;;;;;;15.70;99.90;;;;;;5063699;28;20028;-46
2024/03/29 12:45:38;;;;;;;2.03;1.35;;;15.70;99.90;;;;;;5053902;28;19908;-46
2024/03/29 12:48:10;;;;;;;2.70;1.30;;;15.60;99.90;;;;;;5061873;28;20074;-47
2024/03/29 12:50:36;;;;;;;1.08;1.00;;;15.70;99.90;;;;;;5051824;28;20436;-50
2024/03/29 12:53:06;;;;;;;1.42;1.33;;;15.80;99.90;;;;;;5056924;28;20017;-48
2024/03/29 12:55:35;;;;;;;5.18;1.75;;;15.80;99.90;;;;;;5056057;28;20075;-45
2024/03/29 12:58:02;;;;;;;7.03;1.80;;;15.80;99.90;;;;;;5063436;28;20504;-44
2024/03/29 13:00:27;;;;;;;2.27;1.80;;;15.80;99.90;;;;;;5064564;28;20403;-45